sensor_id;sensor_type;location;lat;lon;timestamp;P1;P2;P0
44871;PMS7003;30602;51.060;17.226;2023-06-04T00:03:10;6;6;4
44871;PMS7003;30602;51.060;17.226;2023-06-04T00:06:43;8;7;5
44871;PMS7003;30602;51.060;17.226;2023-06-04T00:10:34;4;4;4
44871;PMS7003;30602;51.060;17.226;2023-06-04T00:14:18;8;5;4
44871;PMS7003;30602;51.060;17.226;2023-06-04T00:17:40;7;5;4
44871;PMS7003;30602;51.060;17.226;2023-06-04T00:21:02;6;4;4
44871;PMS7003;30602;51.060;17.226;2023-06-04T00:24:44;4;3;2
44871;PMS7003;30602;51.060;17.226;2023-06-04T00:28:48;5;5;4
44871;PMS7003;30602;51.060;17.226;2023-06-04T00:32:41;10;5;4
44871;PMS7003;30602;51.060;17.226;2023-06-04T00:36:14;6;5;4
44871;PMS7003;30602;51.060;17.226;2023-06-04T00:39:52;7;7;5
44871;PMS7003;30602;51.060;17.226;2023-06-04T00:44:07;6;4;3
44871;PMS7003;30602;51.060;17.226;2023-06-04T00:47:51;7;3;3
44871;PMS7003;30602;51.060;17.226;2023-06-04T00:51:57;6;6;5
44871;PMS7003;30602;51.060;17.226;2023-06-04T00:56:12;7;5;4
44871;PMS7003;30602;51.060;17.226;2023-06-04T00:59:35;5;3;2
44871;PMS7003;30602;51.060;17.226;2023-06-04T01:07:31;8;5;4
44871;PMS7003;30602;51.060;17.226;2023-06-04T01:15:17;9;7;5
44871;PMS7003;30602;51.060;17.226;2023-06-04T01:19:30;9;6;4
44871;PMS7003;30602;51.060;17.226;2023-06-04T01:26:54;5;5;4
44871;PMS7003;30602;51.060;17.226;2023-06-04T01:30:36;7;6;3
44871;PMS7003;30602;51.060;17.226;2023-06-04T01:34:08;9;6;4
44871;PMS7003;30602;51.060;17.226;2023-06-04T01:38:23;11;8;6
44871;PMS7003;30602;51.060;17.226;2023-06-04T01:42:08;9;7;7
44871;PMS7003;30602;51.060;17.226;2023-06-04T01:45:30;8;6;5
44871;PMS7003;30602;51.060;17.226;2023-06-04T01:48:52;8;6;5
44871;PMS7003;30602;51.060;17.226;2023-06-04T01:52:23;8;6;5
44871;PMS7003;30602;51.060;17.226;2023-06-04T01:56:27;6;6;4
44871;PMS7003;30602;51.060;17.226;2023-06-04T02:00:39;6;6;4
44871;PMS7003;30602;51.060;17.226;2023-06-04T02:04:22;7;6;5
44871;PMS7003;30602;51.060;17.226;2023-06-04T02:07:45;9;9;6
44871;PMS7003;30602;51.060;17.226;2023-06-04T02:11:51;8;7;6
44871;PMS7003;30602;51.060;17.226;2023-06-04T02:15:13;9;6;5
44871;PMS7003;30602;51.060;17.226;2023-06-04T02:19:15;7;7;5
44871;PMS7003;30602;51.060;17.226;2023-06-04T02:23:30;10;7;6
44871;PMS7003;30602;51.060;17.226;2023-06-04T02:27:09;10;8;5
44871;PMS7003;30602;51.060;17.226;2023-06-04T02:30:45;6;6;5
44871;PMS7003;30602;51.060;17.226;2023-06-04T02:34:06;7;7;5
44871;PMS7003;30602;51.060;17.226;2023-06-04T02:38:20;10;7;6
44871;PMS7003;30602;51.060;17.226;2023-06-04T02:41:43;9;9;6
44871;PMS7003;30602;51.060;17.226;2023-06-04T02:45:47;9;7;6
44871;PMS7003;30602;51.060;17.226;2023-06-04T02:50:02;10;8;7
44871;PMS7003;30602;51.060;17.226;2023-06-04T02:53:36;6;5;5
44871;PMS7003;30602;51.060;17.226;2023-06-04T02:57:51;8;7;5
44871;PMS7003;30602;51.060;17.226;2023-06-04T03:01:31;12;7;6
44871;PMS7003;30602;51.060;17.226;2023-06-04T03:05:25;6;6;5
44871;PMS7003;30602;51.060;17.226;2023-06-04T03:12:47;7;7;5
44871;PMS7003;30602;51.060;17.226;2023-06-04T03:16:09;6;5;4
44871;PMS7003;30602;51.060;17.226;2023-06-04T03:20:22;6;6;4
44871;PMS7003;30602;51.060;17.226;2023-06-04T03:24:05;8;6;5
44871;PMS7003;30602;51.060;17.226;2023-06-04T03:31:24;7;7;6
44871;PMS7003;30602;51.060;17.226;2023-06-04T03:34:45;5;5;4
44871;PMS7003;30602;51.060;17.226;2023-06-04T03:38:52;7;5;4
44871;PMS7003;30602;51.060;17.226;2023-06-04T03:42:30;7;6;5
44871;PMS7003;30602;51.060;17.226;2023-06-04T03:46:24;8;8;6
44871;PMS7003;30602;51.060;17.226;2023-06-04T03:50:13;8;7;5
44871;PMS7003;30602;51.060;17.226;2023-06-04T03:54:30;6;6;5
44871;PMS7003;30602;51.060;17.226;2023-06-04T03:58:23;8;7;5
44871;PMS7003;30602;51.060;17.226;2023-06-04T04:02:54;9;7;6
44871;PMS7003;30602;51.060;17.226;2023-06-04T04:07:10;9;7;6
44871;PMS7003;30602;51.060;17.226;2023-06-04T04:11:22;8;8;6
44871;PMS7003;30602;51.060;17.226;2023-06-04T04:14:45;9;9;6
44871;PMS7003;30602;51.060;17.226;2023-06-04T04:18:41;9;7;6
44871;PMS7003;30602;51.060;17.226;2023-06-04T04:22:05;10;9;6
44871;PMS7003;30602;51.060;17.226;2023-06-04T04:25:47;6;6;6
44871;PMS7003;30602;51.060;17.226;2023-06-04T04:30:15;7;6;5
44871;PMS7003;30602;51.060;17.226;2023-06-04T04:33:57;8;7;6
44871;PMS7003;30602;51.060;17.226;2023-06-04T04:41:47;9;9;6
44871;PMS7003;30602;51.060;17.226;2023-06-04T04:45:07;11;8;6
44871;PMS7003;30602;51.060;17.226;2023-06-04T04:48:33;8;6;5
44871;PMS7003;30602;51.060;17.226;2023-06-04T04:52:12;9;7;5
44871;PMS7003;30602;51.060;17.226;2023-06-04T04:56:04;8;8;6
44871;PMS7003;30602;51.060;17.226;2023-06-04T04:59:36;10;8;7
44871;PMS7003;30602;51.060;17.226;2023-06-04T05:03:17;8;7;6
44871;PMS7003;30602;51.060;17.226;2023-06-04T05:07:11;7;6;4
44871;PMS7003;30602;51.060;17.226;2023-06-04T05:11:16;10;7;6
44871;PMS7003;30602;51.060;17.226;2023-06-04T05:15:10;9;7;5
44871;PMS7003;30602;51.060;17.226;2023-06-04T05:19:58;6;6;5
44871;PMS7003;30602;51.060;17.226;2023-06-04T05:23:38;6;4;3
44871;PMS7003;30602;51.060;17.226;2023-06-04T05:27:32;6;6;5
44871;PMS7003;30602;51.060;17.226;2023-06-04T05:31:06;7;7;5
44871;PMS7003;30602;51.060;17.226;2023-06-04T05:35:08;4;3;3
44871;PMS7003;30602;51.060;17.226;2023-06-04T05:38:51;5;3;2
44871;PMS7003;30602;51.060;17.226;2023-06-04T05:42:34;4;4;2
44871;PMS7003;30602;51.060;17.226;2023-06-04T05:45:58;4;3;2
44871;PMS7003;30602;51.060;17.226;2023-06-04T05:50:03;4;2;2
44871;PMS7003;30602;51.060;17.226;2023-06-04T05:53:53;3;3;2
44871;PMS7003;30602;51.060;17.226;2023-06-04T05:57:15;3;3;3
44871;PMS7003;30602;51.060;17.226;2023-06-04T06:00:34;3;2;2
44871;PMS7003;30602;51.060;17.226;2023-06-04T06:04:04;3;2;2
44871;PMS7003;30602;51.060;17.226;2023-06-04T06:11:17;3;3;2
44871;PMS7003;30602;51.060;17.226;2023-06-04T06:14:42;7;3;3
44871;PMS7003;30602;51.060;17.226;2023-06-04T06:18:08;5;4;4
44871;PMS7003;30602;51.060;17.226;2023-06-04T06:22:22;3;3;2
44871;PMS7003;30602;51.060;17.226;2023-06-04T06:29:50;3;3;3
44871;PMS7003;30602;51.060;17.226;2023-06-04T06:33:10;4;3;3
44871;PMS7003;30602;51.060;17.226;2023-06-04T06:36:53;3;2;2
44871;PMS7003;30602;51.060;17.226;2023-06-04T06:40:35;2;2;1
44871;PMS7003;30602;51.060;17.226;2023-06-04T06:44:28;4;3;3
44871;PMS7003;30602;51.060;17.226;2023-06-04T06:48:09;4;3;3
44871;PMS7003;30602;51.060;17.226;2023-06-04T06:51:52;6;2;2
44871;PMS7003;30602;51.060;17.226;2023-06-04T06:55:46;3;3;2
44871;PMS7003;30602;51.060;17.226;2023-06-04T06:59:09;2;2;1
44871;PMS7003;30602;51.060;17.226;2023-06-04T07:02:31;4;3;2
44871;PMS7003;30602;51.060;17.226;2023-06-04T07:06:45;2;2;2
44871;PMS7003;30602;51.060;17.226;2023-06-04T07:10:26;4;3;3
44871;PMS7003;30602;51.060;17.226;2023-06-04T07:13:49;4;3;2
44871;PMS7003;30602;51.060;17.226;2023-06-04T07:17:24;3;3;3
44871;PMS7003;30602;51.060;17.226;2023-06-04T07:20:47;3;2;2
44871;PMS7003;30602;51.060;17.226;2023-06-04T07:25:01;3;3;2
44871;PMS7003;30602;51.060;17.226;2023-06-04T07:28:22;5;3;2
44871;PMS7003;30602;51.060;17.226;2023-06-04T07:31:43;3;3;3
44871;PMS7003;30602;51.060;17.226;2023-06-04T07:35:25;3;2;2
44871;PMS7003;30602;51.060;17.226;2023-06-04T07:39:19;2;2;2
44871;PMS7003;30602;51.060;17.226;2023-06-04T07:42:39;6;3;3
44871;PMS7003;30602;51.060;17.226;2023-06-04T07:46:33;2;2;2
44871;PMS7003;30602;51.060;17.226;2023-06-04T07:51:10;5;3;3
44871;PMS7003;30602;51.060;17.226;2023-06-04T07:55:02;2;2;2
44871;PMS7003;30602;51.060;17.226;2023-06-04T07:58:33;3;3;2
44871;PMS7003;30602;51.060;17.226;2023-06-04T08:02:38;3;2;2
44871;PMS7003;30602;51.060;17.226;2023-06-04T08:05:57;2;1;1
44871;PMS7003;30602;51.060;17.226;2023-06-04T08:09:36;3;2;2
44871;PMS7003;30602;51.060;17.226;2023-06-04T08:13:00;5;2;2
44871;PMS7003;30602;51.060;17.226;2023-06-04T08:16:53;3;2;2
44871;PMS7003;30602;51.060;17.226;2023-06-04T08:20:13;2;1;1
44871;PMS7003;30602;51.060;17.226;2023-06-04T08:23:36;2;2;1
44871;PMS7003;30602;51.060;17.226;2023-06-04T08:27:18;1;1;1
44871;PMS7003;30602;51.060;17.226;2023-06-04T08:30:38;1;1;1
44871;PMS7003;30602;51.060;17.226;2023-06-04T08:33:58;1;1;1
44871;PMS7003;30602;51.060;17.226;2023-06-04T08:41:55;1;1;1
44871;PMS7003;30602;51.060;17.226;2023-06-04T08:46:04;1;1;1
44871;PMS7003;30602;51.060;17.226;2023-06-04T08:49:59;2;0;0
44871;PMS7003;30602;51.060;17.226;2023-06-04T08:53:19;2;1;1
44871;PMS7003;30602;51.060;17.226;2023-06-04T08:56:40;2;2;1
44871;PMS7003;30602;51.060;17.226;2023-06-04T09:00:21;1;1;1
44871;PMS7003;30602;51.060;17.226;2023-06-04T09:03:53;2;1;1
44871;PMS7003;30602;51.060;17.226;2023-06-04T09:07:54;1;1;1
44871;PMS7003;30602;51.060;17.226;2023-06-04T09:12:00;1;1;1
44871;PMS7003;30602;51.060;17.226;2023-06-04T09:15:45;2;1;1
44871;PMS7003;30602;51.060;17.226;2023-06-04T09:19:28;2;1;1
44871;PMS7003;30602;51.060;17.226;2023-06-04T09:23:57;1;1;1
44871;PMS7003;30602;51.060;17.226;2023-06-04T09:28:05;1;1;1
44871;PMS7003;30602;51.060;17.226;2023-06-04T09:31:28;2;1;1
44871;PMS7003;30602;51.060;17.226;2023-06-04T09:34:55;1;1;1
44871;PMS7003;30602;51.060;17.226;2023-06-04T09:39:27;2;1;1
44871;PMS7003;30602;51.060;17.226;2023-06-04T09:43:22;2;1;1
44871;PMS7003;30602;51.060;17.226;2023-06-04T09:51:20;2;2;2
44871;PMS7003;30602;51.060;17.226;2023-06-04T09:55:00;2;2;2
44871;PMS7003;30602;51.060;17.226;2023-06-04T09:59:02;1;1;1
44871;PMS7003;30602;51.060;17.226;2023-06-04T10:02:33;1;1;1
44871;PMS7003;30602;51.060;17.226;2023-06-04T10:06:13;1;1;1
44871;PMS7003;30602;51.060;17.226;2023-06-04T10:09:57;5;1;1
44871;PMS7003;30602;51.060;17.226;2023-06-04T10:17:43;2;1;1
44871;PMS7003;30602;51.060;17.226;2023-06-04T10:21:28;3;2;2
44871;PMS7003;30602;51.060;17.226;2023-06-04T10:25:03;1;1;1
44871;PMS7003;30602;51.060;17.226;2023-06-04T10:28:35;1;1;1
44871;PMS7003;30602;51.060;17.226;2023-06-04T10:32:44;1;1;1
44871;PMS7003;30602;51.060;17.226;2023-06-04T10:40:18;1;1;1
44871;PMS7003;30602;51.060;17.226;2023-06-04T10:43:50;1;1;1
44871;PMS7003;30602;51.060;17.226;2023-06-04T10:47:38;1;1;1
44871;PMS7003;30602;51.060;17.226;2023-06-04T10:51:02;1;1;1
44871;PMS7003;30602;51.060;17.226;2023-06-04T10:54:27;2;1;1
44871;PMS7003;30602;51.060;17.226;2023-06-04T10:58:38;1;1;1
44871;PMS7003;30602;51.060;17.226;2023-06-04T11:02:06;1;1;1
44871;PMS7003;30602;51.060;17.226;2023-06-04T11:13:56;1;1;1
44871;PMS7003;30602;51.060;17.226;2023-06-04T11:17:52;1;1;1
44871;PMS7003;30602;51.060;17.226;2023-06-04T11:21:34;2;2;1
44871;PMS7003;30602;51.060;17.226;2023-06-04T12:32:53;1;1;1
44871;PMS7003;30602;51.060;17.226;2023-06-04T12:36:13;1;1;1
44871;PMS7003;30602;51.060;17.226;2023-06-04T12:40:11;4;2;2
44871;PMS7003;30602;51.060;17.226;2023-06-04T12:43:43;1;1;1
44871;PMS7003;30602;51.060;17.226;2023-06-04T12:47:18;2;2;1
44871;PMS7003;30602;51.060;17.226;2023-06-04T12:50:38;2;2;2
44871;PMS7003;30602;51.060;17.226;2023-06-04T12:54:22;2;1;1
44871;PMS7003;30602;51.060;17.226;2023-06-04T12:58:39;0;0;0
44871;PMS7003;30602;51.060;17.226;2023-06-04T13:02:29;2;1;1
44871;PMS7003;30602;51.060;17.226;2023-06-04T13:06:44;2;1;1
44871;PMS7003;30602;51.060;17.226;2023-06-04T13:10:15;2;1;1
44871;PMS7003;30602;51.060;17.226;2023-06-04T13:18:05;2;1;1
44871;PMS7003;30602;51.060;17.226;2023-06-04T13:21:25;5;1;1
44871;PMS7003;30602;51.060;17.226;2023-06-04T13:25:07;2;2;1
44871;PMS7003;30602;51.060;17.226;2023-06-04T13:29:11;1;1;0
44871;PMS7003;30602;51.060;17.226;2023-06-04T13:32:35;2;2;1
44871;PMS7003;30602;51.060;17.226;2023-06-04T13:36:18;2;2;2
44871;PMS7003;30602;51.060;17.226;2023-06-04T13:39:51;1;1;1
44871;PMS7003;30602;51.060;17.226;2023-06-04T13:44:04;2;1;1
44871;PMS7003;30602;51.060;17.226;2023-06-04T13:48:11;3;2;2
44871;PMS7003;30602;51.060;17.226;2023-06-04T13:51:38;1;1;1
44871;PMS7003;30602;51.060;17.226;2023-06-04T13:55:06;2;2;1
44871;PMS7003;30602;51.060;17.226;2023-06-04T13:58:49;4;2;2
44871;PMS7003;30602;51.060;17.226;2023-06-04T14:02:14;2;2;2
44871;PMS7003;30602;51.060;17.226;2023-06-04T14:09:36;2;1;1
44871;PMS7003;30602;51.060;17.226;2023-06-04T14:12:56;0;0;0
44871;PMS7003;30602;51.060;17.226;2023-06-04T14:16:48;1;1;1
44871;PMS7003;30602;51.060;17.226;2023-06-04T14:20:56;1;1;1
44871;PMS7003;30602;51.060;17.226;2023-06-04T14:24:47;1;1;1
44871;PMS7003;30602;51.060;17.226;2023-06-04T14:28:31;3;2;1
44871;PMS7003;30602;51.060;17.226;2023-06-04T14:32:32;2;2;2
44871;PMS7003;30602;51.060;17.226;2023-06-04T14:36:15;1;1;1
44871;PMS7003;30602;51.060;17.226;2023-06-04T14:40:19;1;1;1
44871;PMS7003;30602;51.060;17.226;2023-06-04T14:44:33;0;0;0
44871;PMS7003;30602;51.060;17.226;2023-06-04T14:48:30;1;1;1
44871;PMS7003;30602;51.060;17.226;2023-06-04T14:52:09;1;1;1
44871;PMS7003;30602;51.060;17.226;2023-06-04T14:56:02;1;1;1
44871;PMS7003;30602;51.060;17.226;2023-06-04T14:59:38;2;1;1
44871;PMS7003;30602;51.060;17.226;2023-06-04T15:03:38;1;1;1
44871;PMS7003;30602;51.060;17.226;2023-06-04T15:07:00;2;1;1
44871;PMS7003;30602;51.060;17.226;2023-06-04T15:10:18;0;0;0
44871;PMS7003;30602;51.060;17.226;2023-06-04T15:13:59;1;1;1
44871;PMS7003;30602;51.060;17.226;2023-06-04T15:17:20;0;0;0
44871;PMS7003;30602;51.060;17.226;2023-06-04T15:21:12;1;1;1
44871;PMS7003;30602;51.060;17.226;2023-06-04T15:24:53;1;1;1
44871;PMS7003;30602;51.060;17.226;2023-06-04T15:28:45;2;1;1
44871;PMS7003;30602;51.060;17.226;2023-06-04T15:32:29;2;1;1
44871;PMS7003;30602;51.060;17.226;2023-06-04T15:36:41;1;0;0
44871;PMS7003;30602;51.060;17.226;2023-06-04T15:40:16;1;1;1
44871;PMS7003;30602;51.060;17.226;2023-06-04T15:43:36;1;1;1
44871;PMS7003;30602;51.060;17.226;2023-06-04T15:47:42;3;1;1
44871;PMS7003;30602;51.060;17.226;2023-06-04T15:51:18;1;1;1
44871;PMS7003;30602;51.060;17.226;2023-06-04T15:55:33;0;0;0
44871;PMS7003;30602;51.060;17.226;2023-06-04T15:59:37;1;1;1
44871;PMS7003;30602;51.060;17.226;2023-06-04T16:02:59;1;1;1
44871;PMS7003;30602;51.060;17.226;2023-06-04T16:06:32;2;1;1
44871;PMS7003;30602;51.060;17.226;2023-06-04T16:10:13;1;1;0
44871;PMS7003;30602;51.060;17.226;2023-06-04T16:13:36;1;1;1
44871;PMS7003;30602;51.060;17.226;2023-06-04T16:17:20;2;1;1
44871;PMS7003;30602;51.060;17.226;2023-06-04T16:20:40;1;1;1
44871;PMS7003;30602;51.060;17.226;2023-06-04T16:24:53;2;1;1
44871;PMS7003;30602;51.060;17.226;2023-06-04T16:28:13;1;1;1
44871;PMS7003;30602;51.060;17.226;2023-06-04T16:31:49;1;1;0
44871;PMS7003;30602;51.060;17.226;2023-06-04T16:35:35;1;1;1
44871;PMS7003;30602;51.060;17.226;2023-06-04T16:39:19;1;1;1
44871;PMS7003;30602;51.060;17.226;2023-06-04T16:43:24;1;1;1
44871;PMS7003;30602;51.060;17.226;2023-06-04T16:50:59;2;2;2
44871;PMS7003;30602;51.060;17.226;2023-06-04T16:55:02;2;1;1
44871;PMS7003;30602;51.060;17.226;2023-06-04T16:58:37;1;1;1
44871;PMS7003;30602;51.060;17.226;2023-06-04T17:02:31;1;1;1
44871;PMS7003;30602;51.060;17.226;2023-06-04T17:06:09;1;1;1
44871;PMS7003;30602;51.060;17.226;2023-06-04T17:09:32;2;1;1
44871;PMS7003;30602;51.060;17.226;2023-06-04T17:13:38;2;2;1
44871;PMS7003;30602;51.060;17.226;2023-06-04T17:17:20;1;1;1
44871;PMS7003;30602;51.060;17.226;2023-06-04T17:20:39;1;0;0
44871;PMS7003;30602;51.060;17.226;2023-06-04T17:24:18;1;1;1
44871;PMS7003;30602;51.060;17.226;2023-06-04T17:27:40;2;1;1
44871;PMS7003;30602;51.060;17.226;2023-06-04T17:31:00;1;1;1
44871;PMS7003;30602;51.060;17.226;2023-06-04T17:34:23;1;1;0
44871;PMS7003;30602;51.060;17.226;2023-06-04T17:37:52;1;1;1
44871;PMS7003;30602;51.060;17.226;2023-06-04T17:41:30;2;2;1
44871;PMS7003;30602;51.060;17.226;2023-06-04T17:44:54;1;1;1
44871;PMS7003;30602;51.060;17.226;2023-06-04T17:48:16;1;1;1
44871;PMS7003;30602;51.060;17.226;2023-06-04T17:51:48;2;1;1
44871;PMS7003;30602;51.060;17.226;2023-06-04T17:55:30;1;1;1
44871;PMS7003;30602;51.060;17.226;2023-06-04T18:03:04;2;1;1
44871;PMS7003;30602;51.060;17.226;2023-06-04T18:06:59;2;2;1
44871;PMS7003;30602;51.060;17.226;2023-06-04T18:10:23;1;1;1
44871;PMS7003;30602;51.060;17.226;2023-06-04T18:14:16;2;2;1
44871;PMS7003;30602;51.060;17.226;2023-06-04T18:22:15;1;1;1
44871;PMS7003;30602;51.060;17.226;2023-06-04T18:25:56;2;2;2
44871;PMS7003;30602;51.060;17.226;2023-06-04T18:29:20;2;2;1
44871;PMS7003;30602;51.060;17.226;2023-06-04T18:32:54;2;1;1
44871;PMS7003;30602;51.060;17.226;2023-06-04T18:36:43;1;1;1
44871;PMS7003;30602;51.060;17.226;2023-06-04T18:40:56;1;1;1
44871;PMS7003;30602;51.060;17.226;2023-06-04T18:44:50;1;1;0
44871;PMS7003;30602;51.060;17.226;2023-06-04T18:48:33;3;2;2
44871;PMS7003;30602;51.060;17.226;2023-06-04T18:52:43;3;1;1
44871;PMS7003;30602;51.060;17.226;2023-06-04T18:56:02;2;1;1
44871;PMS7003;30602;51.060;17.226;2023-06-04T18:59:37;1;1;1
44871;PMS7003;30602;51.060;17.226;2023-06-04T19:03:20;2;2;2
44871;PMS7003;30602;51.060;17.226;2023-06-04T19:06:44;2;2;1
44871;PMS7003;30602;51.060;17.226;2023-06-04T19:10:07;1;1;1
44871;PMS7003;30602;51.060;17.226;2023-06-04T19:13:32;3;2;1
44871;PMS7003;30602;51.060;17.226;2023-06-04T19:16:54;2;2;1
44871;PMS7003;30602;51.060;17.226;2023-06-04T19:20:14;1;1;1
44871;PMS7003;30602;51.060;17.226;2023-06-04T19:23:52;2;2;2
44871;PMS7003;30602;51.060;17.226;2023-06-04T19:27:33;5;3;2
44871;PMS7003;30602;51.060;17.226;2023-06-04T19:30:56;4;4;3
44871;PMS7003;30602;51.060;17.226;2023-06-04T19:34:50;4;2;2
44871;PMS7003;30602;51.060;17.226;2023-06-04T19:38:14;3;2;1
44871;PMS7003;30602;51.060;17.226;2023-06-04T19:41:54;3;3;2
44871;PMS7003;30602;51.060;17.226;2023-06-04T19:45:27;5;3;3
44871;PMS7003;30602;51.060;17.226;2023-06-04T19:49:14;3;3;2
44871;PMS7003;30602;51.060;17.226;2023-06-04T19:53:09;4;3;2
44871;PMS7003;30602;51.060;17.226;2023-06-04T19:56:26;4;2;2
44871;PMS7003;30602;51.060;17.226;2023-06-04T20:00:09;4;2;2
44871;PMS7003;30602;51.060;17.226;2023-06-04T20:03:33;5;3;3
44871;PMS7003;30602;51.060;17.226;2023-06-04T20:07:00;4;3;2
44871;PMS7003;30602;51.060;17.226;2023-06-04T20:14:14;2;2;2
44871;PMS7003;30602;51.060;17.226;2023-06-04T20:17:38;2;2;2
44871;PMS7003;30602;51.060;17.226;2023-06-04T20:22:25;5;2;2
44871;PMS7003;30602;51.060;17.226;2023-06-04T20:26:04;3;3;3
44871;PMS7003;30602;51.060;17.226;2023-06-04T20:29:55;2;2;2
44871;PMS7003;30602;51.060;17.226;2023-06-04T20:33:50;3;3;2
44871;PMS7003;30602;51.060;17.226;2023-06-04T20:37:20;2;2;2
44871;PMS7003;30602;51.060;17.226;2023-06-04T20:41:26;3;3;2
44871;PMS7003;30602;51.060;17.226;2023-06-04T20:45:18;8;5;4
44871;PMS7003;30602;51.060;17.226;2023-06-04T20:48:57;4;4;3
44871;PMS7003;30602;51.060;17.226;2023-06-04T20:52:57;3;3;3
44871;PMS7003;30602;51.060;17.226;2023-06-04T20:56:36;6;6;5
44871;PMS7003;30602;51.060;17.226;2023-06-04T20:59:59;6;4;3
44871;PMS7003;30602;51.060;17.226;2023-06-04T21:03:34;6;5;4
44871;PMS7003;30602;51.060;17.226;2023-06-04T21:07:20;4;4;2
44871;PMS7003;30602;51.060;17.226;2023-06-04T21:10:57;5;4;4
44871;PMS7003;30602;51.060;17.226;2023-06-04T21:18:38;5;5;4
44871;PMS7003;30602;51.060;17.226;2023-06-04T21:22:51;4;4;3
44871;PMS7003;30602;51.060;17.226;2023-06-04T21:26:29;5;4;3
44871;PMS7003;30602;51.060;17.226;2023-06-04T21:30:03;4;4;4
44871;PMS7003;30602;51.060;17.226;2023-06-04T21:33:37;6;5;4
44871;PMS7003;30602;51.060;17.226;2023-06-04T21:37:08;6;5;5
44871;PMS7003;30602;51.060;17.226;2023-06-04T21:41:13;5;5;4
44871;PMS7003;30602;51.060;17.226;2023-06-04T21:45:04;4;3;3
44871;PMS7003;30602;51.060;17.226;2023-06-04T21:49:09;5;5;5
44871;PMS7003;30602;51.060;17.226;2023-06-04T21:52:28;5;4;3
44871;PMS7003;30602;51.060;17.226;2023-06-04T21:56:02;5;5;4
44871;PMS7003;30602;51.060;17.226;2023-06-04T21:59:59;5;4;3
44871;PMS7003;30602;51.060;17.226;2023-06-04T22:04:06;6;5;3
44871;PMS7003;30602;51.060;17.226;2023-06-04T22:07:45;9;7;6
44871;PMS7003;30602;51.060;17.226;2023-06-04T22:11:24;9;9;7
44871;PMS7003;30602;51.060;17.226;2023-06-04T22:19:19;11;8;7
44871;PMS7003;30602;51.060;17.226;2023-06-04T22:23:26;8;6;6
44871;PMS7003;30602;51.060;17.226;2023-06-04T22:31:09;7;7;6
44871;PMS7003;30602;51.060;17.226;2023-06-04T22:34:50;8;6;5
44871;PMS7003;30602;51.060;17.226;2023-06-04T22:38:32;7;7;6
44871;PMS7003;30602;51.060;17.226;2023-06-04T22:42:14;7;6;5
44871;PMS7003;30602;51.060;17.226;2023-06-04T22:45:48;7;6;5
44871;PMS7003;30602;51.060;17.226;2023-06-04T22:49:08;8;7;5
44871;PMS7003;30602;51.060;17.226;2023-06-04T22:52:55;5;5;4
44871;PMS7003;30602;51.060;17.226;2023-06-04T23:00:13;7;6;5
44871;PMS7003;30602;51.060;17.226;2023-06-04T23:03:32;5;5;4
44871;PMS7003;30602;51.060;17.226;2023-06-04T23:06:52;6;6;5
44871;PMS7003;30602;51.060;17.226;2023-06-04T23:10:34;7;7;6
44871;PMS7003;30602;51.060;17.226;2023-06-04T23:14:17;5;4;3
44871;PMS7003;30602;51.060;17.226;2023-06-04T23:18:34;7;5;4
44871;PMS7003;30602;51.060;17.226;2023-06-04T23:22:06;5;5;4
44871;PMS7003;30602;51.060;17.226;2023-06-04T23:25:36;5;5;4
44871;PMS7003;30602;51.060;17.226;2023-06-04T23:29:07;5;5;4
44871;PMS7003;30602;51.060;17.226;2023-06-04T23:32:45;7;5;5
44871;PMS7003;30602;51.060;17.226;2023-06-04T23:36:07;4;4;4
44871;PMS7003;30602;51.060;17.226;2023-06-04T23:39:46;5;4;4
44871;PMS7003;30602;51.060;17.226;2023-06-04T23:43:05;6;6;4
44871;PMS7003;30602;51.060;17.226;2023-06-04T23:46:36;6;5;4
44871;PMS7003;30602;51.060;17.226;2023-06-04T23:49:56;6;6;5
44871;PMS7003;30602;51.060;17.226;2023-06-04T23:53:20;6;5;5
44871;PMS7003;30602;51.060;17.226;2023-06-04T23:56:42;6;6;5
